Terminal Aerodrome Forecast
Issued by NWS

Home | Current Version | Previous Version | Text Only | Print | Product List | Glossary On
Versions: 1 2 3 4 5 6 7 8 9 10 11 12 13 14 15
000
FTAK31 PAJN 051100
TAFASI
TAF
PASI 051139Z 0512/0612 VRB06KT P6SM -RA SCT015 OVC025
      TEMPO 0512/0516 4SM -RA BR BKN015
     FM052000 VRB04KT P6SM VCSH SCT015 BKN025 OVC040
     FM060000 25005KT P6SM -SHRA SCT025 OVC040=

USA.gov is the U.S. government's official web portal to all federal, state and local government web resources and services.